createdAt,value
2016-03-14T11:05:15.505Z,23.05
2016-03-14T11:06:15.429Z,23.32
2016-03-14T11:07:15.104Z,23.77
2016-03-14T11:08:15.451Z,24.12
2016-03-14T11:09:15.015Z,24.42
2016-03-14T11:10:15.315Z,24.52
2016-03-14T11:11:15.052Z,24.85
2016-03-14T11:12:15.133Z,25.07
2016-03-14T11:13:14.948Z,25.22
2016-03-14T11:14:14.951Z,25.34
2016-03-14T11:15:15.095Z,25.39
2016-03-14T11:16:14.831Z,25.67
2016-03-14T11:17:15.131Z,25.79
2016-03-14T11:18:14.758Z,25.94
2016-03-14T11:19:14.808Z,26.05
2016-03-14T11:20:14.764Z,26.21
2016-03-14T11:21:14.751Z,26.32
2016-03-14T11:22:14.725Z,26.4
2016-03-14T11:23:14.712Z,26.58
2016-03-14T11:24:14.793Z,26.59
2016-03-14T11:25:14.780Z,26.73
2016-03-14T11:26:14.721Z,26.81
2016-03-14T11:27:14.691Z,26.91
2016-03-14T11:28:15.147Z,27.01
2016-03-14T11:29:14.604Z,27.11
2016-03-14T11:30:14.887Z,27.11
2016-03-14T11:31:14.656Z,27.05
2016-03-14T11:32:14.658Z,27.17
2016-03-14T11:33:14.646Z,27.2
2016-03-14T11:35:14.651Z,27.32
2016-03-14T11:36:14.794Z,27.23
2016-03-14T11:38:14.424Z,27.28
2016-03-14T11:39:14.693Z,27.28
2016-03-14T11:40:14.820Z,27.33
2016-03-14T11:41:14.683Z,27.33
2016-03-14T11:46:01.178Z,27.26
2016-03-14T11:47:00.884Z,27.2
2016-03-14T11:48:00.745Z,27.2
2016-03-14T11:49:14.517Z,27.19
2016-03-14T11:50:01.908Z,27.23
2016-03-14T11:51:00.770Z,27.17
2016-03-14T11:52:00.678Z,27.1
2016-03-14T11:53:15.511Z,27.11
2016-03-14T11:54:00.964Z,27.06
2016-03-14T11:55:00.835Z,26.99
2016-03-14T11:56:00.564Z,26.96
2016-03-14T11:57:00.556Z,26.91
2016-03-14T11:58:00.705Z,26.95
2016-03-14T11:59:00.548Z,26.96
2016-03-14T12:00:01.310Z,26.94
2016-03-14T12:01:00.606Z,26.96
2016-03-14T12:02:00.590Z,26.81
2016-03-14T12:03:00.573Z,26.84
2016-03-14T12:04:00.447Z,26.83
2016-03-14T12:05:00.448Z,26.79
2016-03-14T12:06:00.433Z,26.76
2016-03-14T12:07:00.498Z,26.69
2016-03-14T12:08:00.437Z,26.68
2016-03-14T12:09:00.595Z,26.59
2016-03-14T12:10:00.690Z,26.65
2016-03-14T12:11:00.693Z,26.57
2016-03-14T12:12:00.477Z,26.52
2016-03-14T12:13:00.386Z,26.47
2016-03-14T12:14:00.481Z,26.5
2016-03-14T12:15:00.421Z,26.44
2016-03-14T12:16:00.501Z,26.39
2016-03-14T12:17:00.457Z,26.39
2016-03-14T12:18:00.506Z,26.31
2016-03-14T12:19:00.414Z,26.31
2016-03-14T12:20:00.902Z,26.28
2016-03-14T12:21:00.435Z,26.28
2016-03-14T12:22:00.532Z,26.18
2016-03-14T12:23:00.253Z,26.27
2016-03-14T12:24:00.460Z,26.18
2016-03-14T12:25:00.540Z,26.2
2016-03-14T12:26:00.496Z,26.22
2016-03-14T12:27:00.420Z,26.04
2016-03-14T12:28:00.267Z,26.02
2016-03-14T12:29:00.315Z,26.06
2016-03-14T12:30:00.413Z,26.08
2016-03-14T12:31:00.088Z,26.02
2016-03-14T12:32:00.840Z,26.02
2016-03-14T12:33:00.093Z,25.99
2016-03-14T12:39:32.628Z,25.74
2016-03-14T12:40:32.599Z,25.74
2016-03-14T12:41:32.633Z,25.71
2016-03-14T12:42:32.042Z,25.69
2016-03-14T12:43:32.622Z,25.69
2016-03-14T12:44:32.594Z,25.61
2016-03-14T12:45:32.752Z,25.57
2016-03-14T12:46:32.677Z,25.62
2016-03-14T12:47:32.571Z,25.62
2016-03-14T12:48:32.619Z,25.61
2016-03-14T12:49:32.513Z,25.56
2016-03-14T12:50:32.766Z,25.53
2016-03-14T12:51:32.472Z,25.52
2016-03-14T12:52:32.459Z,25.46
2016-03-14T12:53:32.306Z,25.49
2016-03-14T12:54:32.605Z,25.39
2016-03-14T12:55:32.638Z,25.5
2016-03-14T12:56:46.517Z,25.43
2016-03-14T12:57:32.457Z,25.44
2016-03-14T12:58:32.632Z,25.53
2016-03-14T12:59:32.696Z,25.52
2016-03-14T13:00:32.746Z,25.52
2016-03-14T13:01:32.373Z,25.57
2016-03-14T13:02:32.376Z,25.59
2016-03-14T13:03:32.317Z,25.65
2016-03-14T13:04:32.506Z,25.62
2016-03-14T13:05:32.306Z,25.71
2016-03-14T13:06:32.606Z,25.77
2016-03-14T13:07:32.217Z,25.79
2016-03-14T13:08:32.331Z,25.84
2016-03-14T13:09:32.426Z,25.89
2016-03-14T13:10:32.226Z,25.91
2016-03-14T13:11:32.214Z,25.99
2016-03-14T13:12:32.200Z,26.04
2016-03-14T13:13:32.172Z,26.02
2016-03-14T13:14:32.174Z,26.08
2016-03-14T13:15:45.989Z,26.12
2016-03-14T13:16:32.133Z,26.22
2016-03-14T13:17:32.120Z,26.22
2016-03-14T13:18:32.122Z,26.28
2016-03-14T13:19:32.157Z,26.35
2016-03-14T13:20:32.237Z,26.4
2016-03-14T13:22:32.227Z,26.4
2016-03-14T13:23:32.042Z,26.47
2016-03-14T13:24:31.999Z,26.36
2016-03-14T13:25:32.141Z,26.4
2016-03-14T13:26:32.191Z,26.35
2016-03-14T13:27:32.021Z,26.42
2016-03-14T13:28:45.744Z,26.39
2016-03-14T13:29:34.949Z,26.37
2016-03-14T13:30:32.045Z,26.39
2016-03-14T13:31:31.939Z,26.37
2016-03-14T13:32:31.942Z,26.39
2016-03-14T13:33:32.070Z,26.35
2016-03-14T13:34:32.244Z,26.4
2016-03-14T13:35:31.887Z,26.36
2016-03-14T13:37:03.265Z,26.29
2016-03-14T13:37:32.251Z,26.39
2016-03-14T13:38:31.864Z,26.31
2016-03-14T13:39:31.851Z,26.32
2016-03-14T13:40:31.916Z,26.28
2016-03-14T13:41:31.795Z,26.27
2016-03-14T13:42:31.781Z,26.31
2016-03-14T13:43:31.768Z,26.22
2016-03-14T13:44:31.817Z,26.29
2016-03-14T13:45:31.742Z,26.22
2016-03-14T13:46:31.730Z,26.17
2016-03-14T13:48:45.531Z,26.22
2016-03-14T13:49:31.706Z,26.27
2016-03-14T13:50:30.897Z,26.21
2016-03-14T13:51:31.868Z,26.18
2016-03-14T13:52:31.652Z,26.12
2016-03-14T13:53:31.701Z,26.12
2016-03-14T13:54:31.783Z,26.05
2016-03-14T13:55:31.769Z,26.09
2016-03-14T13:56:35.084Z,26.02
2016-03-14T13:57:31.618Z,25.98
2016-03-14T13:58:31.949Z,25.97
2016-03-14T13:59:31.140Z,26.02
2016-03-14T14:00:31.938Z,25.99
2016-03-14T14:01:31.598Z,25.93
2016-03-14T14:02:32.006Z,25.89
2016-03-14T14:03:45.462Z,25.9
2016-03-14T14:04:31.746Z,25.87
2016-03-14T14:05:31.484Z,25.83
2016-03-14T14:06:31.851Z,25.87
2016-03-14T14:07:31.494Z,25.8
2016-03-14T14:08:31.417Z,25.75
2016-03-14T14:09:31.545Z,25.79
2016-03-14T14:10:31.970Z,25.72
2016-03-14T14:11:31.380Z,25.77
2016-03-14T14:12:31.523Z,25.71
2016-03-14T14:13:31.386Z,25.67
2016-03-14T14:14:31.356Z,25.69
2016-03-14T14:15:31.359Z,25.65
2016-03-14T14:16:31.377Z,25.62
2016-03-14T14:17:31.317Z,25.59
2016-03-14T14:18:31.289Z,25.64
2016-03-14T14:19:31.291Z,25.52
2016-03-14T14:20:31.279Z,25.53
2016-03-14T14:21:31.235Z,25.44
2016-03-14T14:22:31.269Z,25.49
2016-03-14T14:23:31.271Z,25.46
2016-03-14T14:24:31.227Z,25.38
2016-03-14T14:25:31.418Z,25.42
2016-03-14T14:26:31.982Z,25.37
2016-03-14T14:27:31.219Z,25.34
2016-03-14T14:28:31.159Z,25.31
2016-03-14T14:29:31.115Z,25.31
2016-03-14T14:30:31.134Z,25.35
2016-03-14T14:31:31.121Z,25.31
2016-03-14T14:32:31.124Z,25.24
2016-03-14T14:33:31.423Z,25.22
2016-03-14T14:34:31.410Z,25.25
2016-03-14T14:35:31.115Z,25.2
2016-03-14T14:36:31.103Z,25.24
2016-03-14T14:37:31.387Z,25.2
2016-03-14T14:38:31.218Z,25.17
2016-03-14T14:39:31.143Z,25.22
2016-03-14T14:40:31.317Z,25.28
2016-03-14T14:41:31.117Z,25.2
2016-03-14T14:42:31.650Z,25.24
2016-03-14T14:43:31.137Z,25.31
2016-03-14T14:44:31.078Z,25.2
2016-03-14T14:45:30.971Z,25.34
2016-03-14T14:46:31.020Z,25.28
2016-03-14T14:47:31.022Z,25.46
2016-03-14T14:48:47.730Z,25.44
2016-03-14T14:49:30.825Z,25.47
2016-03-14T14:50:30.985Z,25.56
2016-03-14T14:51:30.847Z,25.62
2016-03-14T14:52:30.240Z,25.64
2016-03-14T14:53:31.008Z,25.71
2016-03-14T14:54:31.011Z,25.74
2016-03-14T14:55:30.794Z,25.79
2016-03-14T14:56:31.157Z,25.9
2016-03-14T14:57:30.784Z,25.97
2016-03-14T14:58:30.756Z,26.05
2016-03-14T14:59:30.712Z,26.04
2016-03-14T15:00:30.762Z,26.02
2016-03-14T15:01:31.374Z,26.2
2016-03-14T15:02:30.688Z,26.2
2016-03-14T15:03:30.769Z,26.21
2016-03-14T15:04:30.663Z,26.28
2016-03-14T15:05:30.665Z,26.36
2016-03-14T15:06:30.746Z,26.36
2016-03-14T15:07:30.983Z,26.31
2016-03-14T15:08:30.642Z,26.55
2016-03-14T15:09:30.911Z,26.62
2016-03-14T15:10:30.867Z,26.62
2016-03-14T15:11:30.712Z,26.69
2016-03-14T15:12:31.012Z,26.73
2016-03-14T15:13:30.984Z,26.69
2016-03-14T15:14:30.595Z,26.72
2016-03-14T15:15:30.895Z,26.86
2016-03-14T15:16:30.523Z,26.94
2016-03-14T15:17:30.697Z,26.92
2016-03-14T15:18:30.450Z,26.96
2016-03-14T15:19:30.672Z,26.95
2016-03-14T15:20:30.893Z,27.04
2016-03-14T15:21:30.536Z,26.99
2016-03-14T15:22:30.446Z,27.04
2016-03-14T15:23:30.744Z,27.1
2016-03-14T15:24:30.654Z,27.09
2016-03-14T15:25:30.469Z,27.09
2016-03-14T15:26:30.378Z,27.06
2016-03-14T15:27:30.380Z,27.13
2016-03-14T15:28:30.602Z,27.19
2016-03-14T15:29:30.557Z,27.1
2016-03-14T15:30:30.311Z,27.23
2016-03-14T15:31:30.282Z,27.23
2016-03-14T15:32:30.254Z,27.16
2016-03-14T15:33:30.272Z,27.17
2016-03-14T15:34:30.259Z,27.11
2016-03-14T15:35:30.246Z,27.16
2016-03-14T15:36:30.249Z,27.1
2016-03-14T15:37:30.236Z,27.05
2016-03-14T15:38:30.192Z,27.09
2016-03-14T15:39:30.194Z,27.11
2016-03-14T15:40:30.197Z,27.1
2016-03-14T15:41:30.153Z,27.05
2016-03-14T15:42:30.031Z,26.96
2016-03-14T15:43:30.299Z,27.02
2016-03-14T15:44:30.176Z,26.96
2016-03-14T15:45:30.226Z,26.92
2016-03-14T15:46:30.181Z,26.92
2016-03-14T15:47:30.216Z,26.94
2016-03-14T15:48:30.219Z,26.92
2016-03-14T15:49:30.148Z,26.81
2016-03-14T15:50:30.120Z,26.8
2016-03-14T15:51:30.185Z,26.83
2016-03-14T15:52:30.250Z,26.74
2016-03-14T15:53:30.238Z,26.73
2016-03-14T15:54:30.411Z,26.65
2016-03-14T15:55:30.070Z,26.57
2016-03-14T15:56:30.089Z,26.67
2016-03-14T15:57:29.951Z,26.58
2016-03-14T15:58:30.032Z,26.54
2016-03-14T15:59:43.737Z,26.36
2016-03-14T16:00:30.241Z,26.36
2016-03-14T16:01:29.196Z,26.29
2016-03-14T16:02:30.308Z,26.27
2016-03-14T16:03:30.045Z,26.25
2016-03-14T16:04:30.282Z,26.2
2016-03-14T16:05:30.098Z,26.02
2016-03-14T16:06:29.740Z,26.02
2016-03-14T16:07:43.900Z,26.02
2016-03-14T16:08:29.981Z,25.98
2016-03-14T16:09:30.687Z,25.91
2016-03-14T16:10:30.079Z,25.87
2016-03-14T16:11:30.176Z,25.83
2016-03-14T16:12:29.834Z,25.74
2016-03-14T16:13:30.323Z,25.79
2016-03-14T16:14:29.747Z,25.68
2016-03-14T16:15:29.797Z,25.65
2016-03-14T16:17:29.786Z,25.59
2016-03-14T16:18:29.991Z,25.57
2016-03-14T16:19:29.917Z,25.47
2016-03-14T16:20:43.841Z,25.44
2016-03-14T16:21:29.906Z,25.44
2016-03-14T16:22:29.706Z,25.47
2016-03-14T16:23:28.818Z,25.34
2016-03-14T16:24:29.789Z,25.37
2016-03-14T16:25:31.167Z,25.2
2016-03-14T16:26:29.872Z,25.19
2016-03-14T16:27:29.547Z,25.19
2016-03-14T16:28:29.768Z,25.12
2016-03-14T16:29:29.568Z,25.12
2016-03-14T16:30:29.508Z,25.09
2016-03-14T16:31:29.480Z,25.06
2016-03-14T16:32:29.498Z,24.95
2016-03-14T16:33:29.490Z,24.9
2016-03-14T16:35:29.433Z,24.85
2016-03-14T16:36:29.389Z,24.85
2016-03-14T16:37:29.720Z,24.8
2016-03-14T16:38:29.488Z,24.71
2016-03-14T16:39:29.647Z,24.76
2016-03-14T16:40:29.384Z,24.64
2016-03-14T16:41:29.355Z,24.67
2016-03-14T16:42:29.373Z,24.56
2016-03-14T16:43:29.736Z,24.59
2016-03-14T16:45:04.067Z,24.59
2016-03-14T16:45:31.288Z,24.47
2016-03-14T16:46:43.431Z,24.39
2016-03-14T16:47:29.275Z,24.45
2016-03-14T16:48:29.247Z,24.37
2016-03-14T16:49:29.264Z,24.41
2016-03-14T16:50:29.471Z,24.32
2016-03-14T16:51:29.442Z,24.27
2016-03-14T16:52:29.241Z,24.31
2016-03-14T16:53:29.416Z,24.17
2016-03-14T16:54:29.216Z,24.22
2016-03-14T16:55:29.562Z,24.23
2016-03-14T16:56:29.096Z,24.16
2016-03-14T16:57:29.130Z,24.14
2016-03-14T16:58:29.179Z,24.14
2016-03-14T16:59:29.105Z,24.1
2016-03-14T17:00:29.216Z,24.08
2016-03-14T17:01:29.158Z,24.07
2016-03-14T17:02:29.269Z,24.05
2016-03-14T17:03:29.038Z,24.01
2016-03-14T17:04:29.166Z,23.9
2016-03-14T17:05:29.044Z,23.94
2016-03-14T17:06:28.984Z,23.89
2016-03-14T17:07:28.972Z,23.94
2016-03-14T17:08:29.037Z,23.82
2016-03-14T17:09:28.992Z,23.94
2016-03-14T17:10:28.980Z,23.89
2016-03-14T17:11:28.951Z,23.87
2016-03-14T17:12:29.345Z,23.82
2016-03-14T17:13:29.300Z,23.79
2016-03-14T17:14:29.162Z,23.76
2016-03-14T17:15:28.869Z,23.75
2016-03-14T17:16:28.965Z,23.65
2016-03-14T17:17:29.359Z,23.64
2016-03-14T17:18:29.065Z,23.67
2016-03-14T17:19:28.912Z,23.57
2016-03-14T17:20:28.789Z,23.55
2016-03-14T17:21:28.745Z,23.49
2016-03-14T17:22:28.997Z,23.46
2016-03-14T17:23:28.750Z,23.46
2016-03-14T17:24:28.831Z,23.39
2016-03-14T17:25:28.787Z,23.35
2016-03-14T17:26:28.774Z,23.4
2016-03-14T17:27:28.730Z,23.27
2016-03-14T17:28:28.858Z,23.31
2016-03-14T17:29:28.766Z,23.26
2016-03-14T17:30:28.613Z,23.19
2016-03-14T17:31:28.616Z,23.12
2016-03-14T17:32:28.696Z,23.11
2016-03-14T17:33:28.605Z,23.17
2016-03-14T17:34:28.452Z,23.12
2016-03-14T17:35:28.517Z,23.05
2016-03-14T17:36:28.786Z,22.94
2016-03-14T17:37:31.850Z,22.93
2016-03-14T17:38:28.525Z,22.93
2016-03-14T17:39:28.481Z,22.89
2016-03-14T17:40:28.625Z,22.89
2016-03-14T17:41:29.096Z,22.83
2016-03-14T17:42:28.489Z,22.87
2016-03-14T17:43:28.649Z,22.83
2016-03-14T17:44:28.385Z,22.77
2016-03-14T17:45:31.622Z,22.72
2016-03-14T17:46:28.391Z,22.74
2016-03-14T17:47:27.909Z,22.65
2016-03-14T17:48:28.334Z,22.77
2016-03-14T17:49:28.368Z,22.74
2016-03-14T17:50:28.496Z,22.68
2016-03-14T17:51:28.310Z,22.6
2016-03-14T17:52:28.298Z,22.57
2016-03-14T17:53:28.300Z,22.57
2016-03-14T17:54:27.459Z,22.47
2016-03-14T17:55:28.399Z,22.54
2016-03-14T17:56:27.558Z,22.47
2016-03-14T17:58:28.298Z,22.46
2016-03-14T17:59:28.176Z,22.5
2016-03-14T18:00:28.195Z,22.35
2016-03-14T18:01:28.212Z,22.39
2016-03-14T18:02:28.184Z,22.37
2016-03-14T18:03:28.109Z,22.34
2016-03-14T18:04:28.127Z,22.34
2016-03-14T18:05:27.489Z,22.31
2016-03-14T18:06:28.101Z,22.28
2016-03-14T18:07:28.260Z,22.2
2016-03-14T18:08:28.044Z,22.17
2016-03-14T18:09:28.219Z,22.2
2016-03-14T18:10:28.158Z,22.22
2016-03-14T18:11:27.989Z,22.14
2016-03-14T18:12:28.289Z,22.19
2016-03-14T18:13:28.072Z,22.07
2016-03-14T18:14:27.997Z,22.14
2016-03-14T18:15:27.937Z,22.13
2016-03-14T18:16:28.080Z,22.13
2016-03-14T18:17:27.944Z,22.1
2016-03-14T18:18:27.852Z,22.1
2016-03-14T18:19:27.917Z,22.12
2016-03-14T18:20:27.873Z,21.95
2016-03-14T18:21:28.001Z,21.97
2016-03-14T18:22:27.893Z,21.98
2016-03-14T18:23:27.803Z,22.02
2016-03-14T18:24:27.790Z,22.01
2016-03-14T18:25:41.574Z,21.88
2016-03-14T18:26:27.732Z,21.91
2016-03-14T18:27:27.704Z,21.85
2016-03-14T18:28:27.754Z,21.97
2016-03-14T18:29:27.710Z,21.85
2016-03-14T18:30:27.713Z,21.92
2016-03-14T18:31:27.684Z,21.88
2016-03-14T18:32:27.968Z,21.82
2016-03-14T18:33:27.720Z,21.82
2016-03-14T18:34:27.598Z,21.81
2016-03-14T18:35:27.695Z,21.82
2016-03-14T18:36:27.589Z,21.74
2016-03-14T18:37:27.606Z,21.83
2016-03-14T18:38:27.859Z,21.78
2016-03-14T18:39:28.893Z,21.72
2016-03-14T18:40:27.520Z,21.69
2016-03-14T18:41:41.445Z,21.69
2016-03-14T18:42:27.604Z,21.69
2016-03-14T18:43:27.513Z,21.72
2016-03-14T18:44:26.938Z,21.67
2016-03-14T18:45:27.408Z,21.66
2016-03-14T18:46:27.724Z,21.6
2016-03-14T18:47:27.430Z,21.63
2016-03-14T18:48:27.511Z,21.59
2016-03-14T18:49:27.624Z,21.56
2016-03-14T18:50:27.377Z,21.5
2016-03-14T18:51:27.722Z,21.51
2016-03-14T18:52:27.303Z,21.51
2016-03-14T18:53:27.368Z,21.53
2016-03-14T18:54:27.637Z,21.44
2016-03-14T18:55:27.265Z,21.48
2016-03-14T18:56:27.674Z,21.41
2016-03-14T18:57:27.316Z,21.51
2016-03-14T18:58:27.412Z,21.46
2016-03-14T18:59:27.604Z,21.44
2016-03-14T19:00:27.309Z,21.41
2016-03-14T19:01:27.452Z,21.39
2016-03-14T19:02:27.283Z,21.36
2016-03-14T19:03:27.192Z,21.38
2016-03-14T19:04:27.179Z,21.26
2016-03-14T19:05:27.181Z,21.3
2016-03-14T19:06:27.482Z,21.38
2016-03-14T19:07:27.203Z,21.3
2016-03-14T19:09:27.411Z,21.26
2016-03-14T19:10:27.008Z,21.23
2016-03-14T19:11:26.260Z,21.29
2016-03-14T19:12:27.091Z,21.23
2016-03-14T19:13:27.017Z,21.27
2016-03-14T19:14:27.019Z,21.2
2016-03-14T19:15:26.959Z,21.14
2016-03-14T19:16:40.711Z,21.2
2016-03-14T19:17:26.886Z,21.19
2016-03-14T19:18:27.373Z,21.23
2016-03-14T19:19:26.861Z,21.13
2016-03-14T19:20:26.894Z,21.2
2016-03-14T19:21:26.897Z,21.13
2016-03-14T19:22:26.774Z,21.09
2016-03-14T19:23:26.793Z,21.11
2016-03-14T19:24:26.749Z,21.13
2016-03-14T19:25:26.782Z,21.14
2016-03-14T19:26:28.098Z,21.05
2016-03-14T19:27:28.932Z,21.05
2016-03-14T19:28:26.530Z,21.08
2016-03-14T19:29:26.558Z,21.11
2016-03-14T19:30:26.769Z,21.11
2016-03-14T19:31:26.947Z,21.02
2016-03-14T19:32:26.746Z,21.04
2016-03-14T19:33:25.967Z,20.98
2016-03-14T19:34:40.376Z,21.06
2016-03-14T19:35:26.739Z,21.04
2016-03-14T19:36:26.679Z,21.05
2016-03-14T19:37:26.542Z,20.98
2016-03-14T19:38:40.826Z,21.01
2016-03-14T19:39:26.500Z,20.98
2016-03-14T19:40:26.486Z,20.96
2016-03-14T19:41:26.474Z,20.9
2016-03-14T19:42:26.445Z,20.95
2016-03-14T19:43:26.417Z,20.89
2016-03-14T19:44:26.435Z,20.87
2016-03-14T19:45:26.469Z,21.02
2016-03-14T19:46:26.768Z,20.98
2016-03-14T19:47:26.505Z,20.99
2016-03-14T19:48:25.539Z,20.89
2016-03-14T19:49:26.511Z,20.93
2016-03-14T19:50:40.624Z,20.95
2016-03-14T19:51:26.782Z,20.81
2016-03-14T19:52:26.472Z,20.96
2016-03-14T19:53:26.538Z,20.84
2016-03-14T19:54:40.041Z,20.84
2016-03-14T19:55:26.308Z,20.84
2016-03-14T19:56:26.326Z,20.84
2016-03-14T19:57:26.267Z,20.86
2016-03-14T19:58:26.723Z,20.87
2016-03-14T19:59:26.162Z,20.83
2016-03-14T20:00:26.478Z,20.83
2016-03-14T20:01:26.121Z,20.83
2016-03-14T20:02:26.421Z,20.81
2016-03-14T20:03:26.142Z,20.8
2016-03-14T20:04:26.114Z,20.76
2016-03-14T20:05:26.085Z,20.68
2016-03-14T20:06:26.056Z,20.77
2016-03-14T20:07:26.559Z,20.71
2016-03-14T20:08:26.171Z,20.74
2016-03-14T20:09:26.064Z,20.69
2016-03-14T20:10:26.036Z,20.72
2016-03-14T20:11:25.976Z,20.69
2016-03-14T20:12:26.229Z,20.69
2016-03-14T20:13:26.248Z,20.77
2016-03-14T20:14:25.906Z,20.68
2016-03-14T20:15:25.972Z,20.69
2016-03-14T20:16:26.099Z,20.71
2016-03-14T20:17:25.867Z,20.65
2016-03-14T20:18:26.058Z,20.66
2016-03-14T20:19:25.888Z,20.66
2016-03-14T20:20:25.782Z,20.59
2016-03-14T20:21:25.924Z,20.68
2016-03-14T20:22:25.788Z,20.56
2016-03-14T20:23:26.212Z,20.62
2016-03-14T20:24:25.715Z,20.51
2016-03-14T20:25:25.935Z,20.54
2016-03-14T20:26:25.704Z,20.58
2016-03-14T20:27:25.785Z,20.54
2016-03-14T20:28:25.678Z,20.58
2016-03-14T20:29:25.854Z,20.58
2016-03-14T20:30:25.996Z,20.58
2016-03-14T20:31:26.420Z,20.51
2016-03-14T20:32:25.798Z,20.56
2016-03-14T20:33:25.614Z,20.5
2016-03-14T20:34:26.007Z,20.56
2016-03-14T20:35:25.540Z,20.39
2016-03-14T20:36:25.512Z,20.47
2016-03-14T20:37:25.531Z,20.49
2016-03-14T20:38:25.487Z,20.38
2016-03-14T20:39:25.505Z,20.43
2016-03-14T20:40:25.492Z,20.49
2016-03-14T20:41:25.417Z,20.38
2016-03-14T20:42:24.560Z,20.35
2016-03-14T20:43:25.594Z,20.38
2016-03-14T20:44:25.596Z,20.42
2016-03-14T20:46:25.353Z,20.35
2016-03-14T20:47:25.293Z,20.43
2016-03-14T20:48:25.373Z,20.41
2016-03-14T20:49:25.330Z,20.42
2016-03-14T20:50:25.285Z,20.35
2016-03-14T20:52:24.712Z,20.34
2016-03-14T20:53:25.450Z,20.25
2016-03-14T20:54:25.655Z,20.25
2016-03-14T20:55:25.267Z,20.21
2016-03-14T20:56:25.223Z,20.28
2016-03-14T20:57:25.132Z,20.28
2016-03-14T20:58:39.010Z,20.25
2016-03-14T20:59:25.075Z,20.28
2016-03-14T21:00:25.108Z,20.31
2016-03-14T21:01:25.237Z,20.21
2016-03-14T21:02:25.007Z,20.27
2016-03-14T21:03:24.995Z,20.18
2016-03-14T21:04:25.078Z,20.25
2016-03-14T21:05:24.927Z,20.24
2016-03-14T21:06:25.161Z,20.21
2016-03-14T21:07:26.267Z,20.21
2016-03-14T21:08:24.873Z,20.1
2016-03-14T21:09:24.840Z,20.1
2016-03-14T21:10:24.807Z,20.12
2016-03-14T21:11:24.980Z,20.13
2016-03-14T21:12:24.857Z,20.18
2016-03-14T21:13:25.170Z,20.18
2016-03-14T21:14:24.734Z,20.1
2016-03-14T21:15:24.766Z,20.15
2016-03-14T21:16:24.706Z,20.12
2016-03-14T21:17:24.677Z,20.12
2016-03-14T21:18:24.678Z,20.1
2016-03-14T21:19:27.696Z,20.12
2016-03-14T21:20:24.760Z,20.05
2016-03-14T21:21:25.278Z,20.12
2016-03-14T21:22:24.890Z,19.98
2016-03-14T21:23:24.784Z,20.06
2016-03-14T21:24:24.709Z,20.06
2016-03-14T21:25:24.774Z,20.02
2016-03-14T21:26:24.590Z,20.08
2016-03-14T21:27:24.795Z,20.06
2016-03-14T21:28:24.501Z,19.98
2016-03-14T21:29:24.473Z,20
